| Record Date MM/DD/YYYY | Record Julian Date NNN day of the year | Air Temperature Max (Degrees Fahrenheit F) | Time Max Air Temperature HH:MM:SS This is the time of max air temperature standard time. | Air Temperature Min (Degrees Fahrenheit F) | Time Min Air Temperature HH:MM:SS This is the time of min air temperature standard time. | Air Temperature Observed (Degrees Fahrenheit F) This is an instantaneous reading for air temperature at 7:00:00 standard time. | Relative Humidity Max (Percent) | Time Max Relative Humidity HH:MM:SS This is the time of max relative humidity standard time. | Relative Humidity Min (Percent) | Time Min Relative Humidity HH:MM:SS This is the time of min relative humidity standard time. | Relative Humidity Observed (Percent) This is an instantaneous reading at 7:00:00 standard time. | Precipitation (Inches n.nn) total rain fall that occurred for the day. | Pan Evaporation (Inches n.nn) total evaporation that occured for the day. | Wind Run (Miles) Wind travel for the day. | Wind Speed (Miles Per Hour) Resultant / Average speed for the day. | Wind Direction (Degrees) Resultant Direction for the day | Solar Radiation (Langley's) that occurred for the day. | Soil Temperature Max at 2 inch depth (Degrees Fahrenheit F) that occurred during the day. | Time Max Soil temperature at 2 inches HH:MM:SS This is the time of max 2 inch soil temperature standard time. | Soil Temperature Min at 2 inch depth (Degrees Fahrenheit F) that occurred during the day. | Time Min Soil temperature at 2 inches HH:MM:SS This is the time of min 2 inch soil temperature standard time. | Soil Temperature Observed at 2 inch depth (Degrees Fahrenheit F) This is an instantaneous reading 2 inch soil temperature at 7:00:00 standard time. | Soil Temperature Max at 4 inch depth (Degrees Fahrenheit F) that occurred during the day. | Time Max Soil temperature at 4 inches HH:MM:SS This is the time of max 4 inch soil temperature standard time. | Soil Temperature Min at 4 inch depth (Degrees Fahrenheit F) that occurred during the day. | Time Min Soil temperature at 4 inches HH:MM:SS This is the time of min 4 inch soil temperature standard time. | Soil Temperature Observed at 4 inch depth (Degrees Fahrenheit F) This is an instantaneous reading 4 inch soil temperature at 7:00:00 standard time. | DD50 Degree Days 50 Fahrenheit. | Adjusted DD50 Degree Days 50 Fahrenheit adjusted for latitude. | DD60 Degree Days 60 Fahrenheit. |
|---|---|---|---|---|---|---|---|---|---|---|---|---|---|---|---|---|---|---|---|---|---|---|---|---|---|---|---|---|---|---|
| 08/02/2026 | 214 | 89 | 14:08:00 | 68 | 3:39:00 | 74 | 100 | 2:07:04 | 59 | 15:17:02 | 95 | 0 | 24 | 1.1 | 353 | 375 | 89 | 15:29:01 | 81 | 6:43:02 | 81 | 87 | 0:01:00 | 83 | 8:45:04 | 84 | 28.5 | 27.1 | 18.5 | |
| 08/03/2026 | 215 | 95 | 16:53:03 | 68 | 4:27:02 | 72 | 100 | 0:00:00 | 47 | 15:12:01 | 100 | 0 | 24 | 1.4 | 353 | 557 | 91 | 15:49:05 | 80 | 6:36:03 | 80 | 87 | 17:34:02 | 82 | 7:46:03 | 82 | 31.5 | 27.07 | 21.5 | |
| 08/04/2026 | 216 | 98 | 14:13:00 | 68 | 4:39:05 | 73 | 100 | 2:15:05 | 34 | 14:34:00 | 96 | 0 | 24 | 1.4 | 352 | 582 | 92 | 15:04:03 | 80 | 7:06:03 | 80 | 88 | 17:29:03 | 82 | 7:53:04 | 82 | 33 | 27.04 | 23 | |
| 08/05/2026 | 217 | 99 | 15:05:03 | 68 | 3:39:02 | 73 | 100 | 3:48:05 | 31 | 12:14:04 | 93 | 0 | 24 | 1.4 | 352 | 570 | 92 | 15:13:02 | 80 | 6:45:00 | 80 | 88 | 17:32:04 | 82 | 7:54:01 | 82 | 33.5 | 27 | 23.5 | |
| 08/06/2026 | 218 | 98 | 11:58:02 | 72 | 3:18:03 | 78 | 100 | 4:22:05 | 53 | 12:02:05 | 92 | 0 | 48 | 1.9 | 352 | 391 | 91 | 13:27:02 | 82 | 6:18:03 | 82 | 87 | 15:14:01 | 83 | 7:54:01 | 83 | 35 | 26.97 | 25 | |
| 08/07/2026 | 219 | 95 | 10:31:01 | 74 | 3:53:04 | 77 | 100 | 0:00:00 | 57 | 10:35:04 | 98 | 0 | 48 | 1.8 | 352 | 430 | 88 | 15:58:02 | 80 | 6:43:03 | 80 | 85 | 17:23:03 | 82 | 7:30:02 | 82 | 34.5 | 26.94 | 24.5 | |
| 08/08/2026 | 220 | 100 | 15:24:05 | 74 | 5:13:03 | 79 | 100 | 3:35:03 | 46 | 15:28:00 | 96 | 0 | 24 | 1.2 | 352 | 498 | 89 | 15:54:05 | 80 | 6:32:03 | 80 | 86 | 18:02:00 | 81 | 7:06:00 | 81 | 37 | 26.91 | 27 | |
| 08/09/2026 | 221 | 100 | 12:47:02 | 73 | 5:10:03 | 78 | 100 | 4:35:01 | 47 | 13:43:01 | 93 | 0 | 24 | 1.5 | 352 | 566 | 91 | 16:02:00 | 80 | 6:40:00 | 80 | 87 | 17:39:03 | 82 | 7:25:01 | 82 | 36.5 | 26.88 | 26.5 | |
| 08/10/2026 | 222 | 101 | 14:46:02 | 75 | 5:22:05 | 80 | 100 | 5:33:04 | 45 | 14:43:01 | 92 | 0 | 48 | 1.9 | 352 | 555 | 92 | 15:23:05 | 81 | 6:41:00 | 81 | 88 | 16:31:01 | 83 | 7:38:02 | 83 | 38 | 26.85 | 28 | |
| 08/11/2026 | 223 | 98 | 16:59:03 | 75 | 5:24:01 | 79 | 100 | 3:37:01 | 50 | 16:57:03 | 95 | 0 | 72 | 3.1 | 352 | 523 | 92 | 14:08:03 | 81 | 6:52:05 | 82 | 88 | 17:09:05 | 83 | 7:50:00 | 83 | 36.5 | 26.81 | 26.5 | |
| 08/12/2026 | 224 | 99 | 16:38:03 | 77 | 1:54:05 | 82 | 97 | 23:12:02 | 49 | 16:28:04 | 91 | 0 | 72 | 3.4 | 352 | 571 | 94 | 13:59:05 | 82 | 6:34:04 | 83 | 88 | 16:59:01 | 83 | 7:35:01 | 83 | 38 | 26.78 | 28 | |
| 08/13/2026 | 225 | 99 | 14:25:00 | 78 | 22:42:05 | 83 | 97 | 5:47:03 | 46 | 17:03:03 | 93 | 0 | 96 | 3.6 | 353 | 598 | 95 | 14:19:01 | 84 | 6:31:01 | 84 | 89 | 17:01:01 | 84 | 7:35:04 | 84 | 38.5 | 26.75 | 28.5 | |
| 08/14/2026 | 226 | 101 | 17:18:00 | 74 | 23:59:02 | 81 | 99 | 6:04:02 | 39 | 17:32:04 | 94 | 0 | 72 | 2.8 | 353 | 563 | 95 | 14:18:00 | 84 | 6:40:04 | 84 | 90 | 17:05:04 | 85 | 7:53:05 | 85 | 37.5 | 26.72 | 27.5 | |
| 08/15/2026 | 227 | 104 | 16:31:05 | 74 | 0:25:03 | 81 | 100 | 5:25:04 | 37 | 14:41:01 | 94 | 0 | 48 | 2.0 | 353 | 573 | 95 | 14:11:04 | 83 | 6:18:04 | 83 | 90 | 17:32:04 | 84 | 7:38:00 | 84 | 39 | 26.68 | 29 | |
| 08/16/2026 | 228 | 105 | 16:23:04 | 77 | 1:33:05 | 83 | 97 | 1:31:02 | 43 | 16:50:01 | 90 | 0 | 48 | 1.6 | 353 | 520 | 94 | 13:38:04 | 84 | 6:35:05 | 84 | 90 | 17:34:01 | 85 | 7:44:05 | 85 | 41 | 26.65 | 31 | |
| 08/17/2026 | 229 | 106 | 16:46:03 | 79 | 5:03:01 | 83 | 94 | 5:05:05 | 36 | 16:26:04 | 86 | 0 | 48 | 1.9 | 353 | 512 | 96 | 13:50:01 | 85 | 6:56:01 | 85 | 90 | 17:04:01 | 85 | 8:07:03 | 86 | 42.5 | 26.62 | 32.5 | |
| 08/18/2026 | 230 | 106 | 14:45:02 | 79 | 5:40:02 | 82 | 92 | 5:49:01 | 36 | 16:02:00 | 84 | 0 | 48 | 1.5 | 353 | 550 | 97 | 14:22:00 | 85 | 6:59:03 | 85 | 91 | 17:05:04 | 86 | 8:18:05 | 86 | 42.5 | 26.58 | 32.5 | |
| 08/19/2026 | 231 | 104 | 13:24:05 | 79 | 23:56:02 | 83 | 95 | 5:46:02 | 41 | 13:23:04 | 87 | 0 | 72 | 2.6 | 353 | 573 | 98 | 14:23:05 | 85 | 6:46:03 | 85 | 92 | 17:07:00 | 86 | 8:07:05 | 86 | 41.5 | 26.55 | 31.5 | |
| 08/20/2026 | 232 | 105 | 15:11:02 | 79 | 0:07:00 | 83 | 95 | 5:18:03 | 40 | 15:11:03 | 86 | 0 | 72 | 2.6 | 353 | 521 | 96 | 14:27:02 | 86 | 7:25:01 | 86 | 91 | 17:04:05 | 86 | 8:45:01 | 87 | 42 | 26.52 | 32 | |
| 08/21/2026 | 233 | 105 | 13:03:05 | 74 | 23:54:00 | 79 | 98 | 23:58:01 | 40 | 13:06:03 | 88 | 0 | 48 | 1.7 | 353 | 336 | 95 | 13:37:03 | 84 | 23:55:05 | 84 | 89 | 14:46:01 | 86 | 8:16:04 | 86 | 39.5 | 26.48 | 29.5 | |
| 08/22/2026 | 234 | 107 | 14:56:04 | 71 | 2:47:02 | 75 | 100 | 1:47:04 | 32 | 15:04:05 | 99 | 0 | 24 | 1.3 | 352 | 546 | 96 | 14:33:05 | 82 | 6:47:02 | 82 | 90 | 17:24:03 | 84 | 8:08:04 | 84 | 39 | 26.45 | 29 | |
| 08/23/2026 | 235 | 102 | 14:55:02 | 74 | 5:01:00 | 76 | 100 | 4:52:03 | 41 | 14:40:05 | 95 | 0 | 48 | 1.5 | 352 | 536 | 94 | 14:31:01 | 83 | 6:57:00 | 83 | 89 | 17:39:05 | 85 | 8:53:00 | 85 | 38 | 26.42 | 28 | |
| 08/24/2026 | 236 | 83 | 17:11:00 | 73 | 9:03:02 | 80 | 100 | 8:28:03 | 86 | 17:15:05 | 94 | 0 | 24 | 1.3 | 352 | 98 | 86 | 0:01:01 | 77 | 9:18:03 | 84 | 87 | 0:01:01 | 80 | 12:50:01 | 85 | 28 | 26.38 | 18 | |
| 08/25/2026 | 237 | 99 | 14:28:03 | 72 | 2:12:05 | 75 | 100 | 0:00:00 | 56 | 16:32:04 | 100 | 0 | 24 | 1.1 | 349 | 345 | 86 | 14:45:05 | 79 | 5:33:03 | 79 | 84 | 18:02:01 | 80 | 8:14:05 | 80 | 35.5 | 26.35 | 25.5 | |
| 08/26/2026 | 238 | 102 | 13:42:03 | 74 | 4:39:05 | 77 | 100 | 0:00:00 | 51 | 14:06:03 | 100 | 0 | 48 | 2.0 | 351 | 466 | 89 | 14:13:05 | 80 | 6:43:04 | 80 | 85 | 17:12:02 | 81 | 7:43:05 | 81 | 38 | 26.32 | 28 | |
| 08/27/2026 | 239 | 96 | 16:10:02 | 74 | 4:39:05 | 75 | 100 | 0:44:01 | 56 | 16:12:00 | 100 | 0 | 24 | 1.3 | 352 | 504 | 87 | 14:17:02 | 80 | 7:24:03 | 81 | 84 | 17:45:04 | 81 | 9:09:00 | 81 | 35 | 26.28 | 25 | |
| 08/28/2026 | 240 | 98 | 12:58:04 | 74 | 5:22:03 | 78 | 100 | 0:00:00 | 44 | 13:55:05 | 100 | 0 | 24 | 0.8 | 352 | 444 | 87 | 14:16:05 | 80 | 7:08:05 | 80 | 84 | 17:33:04 | 81 | 7:58:02 | 81 | 36 | 26.25 | 26 | |
| 08/29/2026 | 241 | 100 | 16:42:05 | 70 | 23:57:01 | 73 | 100 | 0:00:00 | 34 | 16:24:05 | 100 | 0 | 24 | 0.9 | 352 | 563 | 86 | 14:20:04 | 79 | 7:28:05 | 80 | 84 | 17:29:01 | 80 | 8:28:04 | 81 | 35 | 26.21 | 25 | |
| 08/30/2026 | 242 | 102 | 14:35:02 | 70 | 1:47:05 | 74 | 100 | 0:00:00 | 42 | 14:32:00 | 98 | 0 | 24 | 1.0 | 352 | 473 | 85 | 14:22:04 | 78 | 6:40:03 | 79 | 83 | 17:53:02 | 79 | 8:02:04 | 80 | 36 | 26.18 | 26 | |
| Average | 99.86 | 73.69 | 78.14 | 98.76 | 45.45 | 94.1 | 0 | 43.03 | 494.45 | 91.66 | 81.55 | 81.97 | 87.62 | 82.9 | 83.24 | 36.78 | 26.65 | 26.78 | ||||||||||||
| Total | 0 | 1066.5 | 772.74 | 776.5 |